createdAt,value
2023-03-22T00:04:29.298Z,12.90
2023-03-22T00:09:34.068Z,12.90
2023-03-22T00:14:37.620Z,12.90
2023-03-22T00:19:42.219Z,12.90
2023-03-22T00:24:47.221Z,12.90
2023-03-22T00:29:52.571Z,12.80
2023-03-22T00:34:55.962Z,12.80
2023-03-22T00:40:00.727Z,12.80
2023-03-22T00:45:04.810Z,12.80
2023-03-22T00:50:11.147Z,12.80
2023-03-22T00:55:15.878Z,12.80
2023-03-22T01:00:20.164Z,12.80
2023-03-22T01:05:23.780Z,12.80
2023-03-22T01:10:28.701Z,12.80
2023-03-22T01:15:32.470Z,12.80
2023-03-22T01:20:36.631Z,12.80
2023-03-22T01:25:41.415Z,12.80
2023-03-22T01:30:44.867Z,12.80
2023-03-22T01:35:48.347Z,12.70
2023-03-22T01:40:53.224Z,12.70
2023-03-22T01:45:56.982Z,12.70
2023-03-22T01:51:05.217Z,12.70
2023-03-22T01:56:11.507Z,12.70
2023-03-22T02:01:16.119Z,12.70
2023-03-22T02:06:20.376Z,12.70
2023-03-22T02:11:31.677Z,12.70
2023-03-22T02:16:42.174Z,12.80
2023-03-22T02:22:25.924Z,12.70
2023-03-22T02:27:43.996Z,12.80
2023-03-22T02:33:17.407Z,12.80
2023-03-22T02:38:55.051Z,12.80
2023-03-22T02:44:08.029Z,12.80
2023-03-22T02:49:19.627Z,12.80
2023-03-22T02:54:28.751Z,12.80
2023-03-22T02:59:38.488Z,12.80
2023-03-22T03:04:46.358Z,12.80
2023-03-22T03:09:51.336Z,12.80
2023-03-22T03:14:56.348Z,12.80
2023-03-22T03:20:21.913Z,12.80
2023-03-22T03:25:29.338Z,12.80
2023-03-22T03:30:38.979Z,12.80
2023-03-22T03:35:48.705Z,12.80
2023-03-22T03:40:55.289Z,12.80
2023-03-22T03:46:01.111Z,12.80
2023-03-22T03:51:05.117Z,12.80
2023-03-22T03:56:09.472Z,12.80
2023-03-22T04:01:14.293Z,12.80
2023-03-22T04:06:18.080Z,12.80
2023-03-22T04:11:21.489Z,12.80
2023-03-22T04:16:26.886Z,12.80
2023-03-22T04:21:30.648Z,12.80
2023-03-22T04:26:34.561Z,12.80
2023-03-22T04:31:39.543Z,12.80
2023-03-22T04:36:42.970Z,12.80
2023-03-22T04:41:46.329Z,12.80
2023-03-22T04:46:51.148Z,12.80
2023-03-22T04:51:54.597Z,12.80
2023-03-22T04:56:58.244Z,12.70
2023-03-22T05:02:03.723Z,12.70
2023-03-22T05:07:07.110Z,12.70
2023-03-22T05:12:11.032Z,12.70
2023-03-22T05:17:16.604Z,12.60
2023-03-22T05:22:22.415Z,12.60
2023-03-22T05:27:31.732Z,12.60
2023-03-22T05:32:37.703Z,12.60
2023-03-22T05:37:41.558Z,12.60
2023-03-22T05:42:45.427Z,12.60
2023-03-22T05:47:50.582Z,12.60
2023-03-22T05:52:54.097Z,12.60
2023-03-22T05:57:57.984Z,12.60
2023-03-22T06:03:03.756Z,12.60
2023-03-22T06:08:07.281Z,12.60
2023-03-22T06:13:10.879Z,12.60
2023-03-22T06:18:15.859Z,12.70
2023-03-22T06:23:19.376Z,12.70
2023-03-22T06:28:22.857Z,12.70
2023-03-22T06:33:27.719Z,12.70
2023-03-22T06:38:31.214Z,12.70
2023-03-22T06:43:34.587Z,12.80
2023-03-22T06:48:39.318Z,12.80
2023-03-22T06:53:42.927Z,12.90
2023-03-22T06:58:46.608Z,12.90
2023-03-22T07:03:51.700Z,13.00
2023-03-22T07:08:55.531Z,13.10
2023-03-22T07:13:59.164Z,13.20
2023-03-22T07:19:04.740Z,13.20
2023-03-22T07:24:09.235Z,13.30
2023-03-22T07:29:12.707Z,13.40
2023-03-22T07:34:17.629Z,13.50
2023-03-22T07:39:21.253Z,13.60
2023-03-22T07:44:25.319Z,13.60
2023-03-22T07:49:31.209Z,13.70
2023-03-22T07:54:34.837Z,13.70
2023-03-22T07:59:40.095Z,13.80
2023-03-22T08:04:45.067Z,13.90
2023-03-22T08:09:49.541Z,14.00
2023-03-22T08:14:53.244Z,14.00
2023-03-22T08:19:58.417Z,14.10
2023-03-22T08:25:01.861Z,14.20
2023-03-22T08:30:06.765Z,14.30
2023-03-22T08:35:12.886Z,14.30
2023-03-22T08:40:16.457Z,14.40
2023-03-22T08:45:20.252Z,14.50
2023-03-22T08:50:25.104Z,14.50
2023-03-22T08:55:28.535Z,14.60
2023-03-22T09:00:47.406Z,14.60
2023-03-22T09:05:59.494Z,14.70
2023-03-22T09:11:05.650Z,14.80
2023-03-22T09:16:10.405Z,14.80
2023-03-22T09:21:17.398Z,14.90
2023-03-22T09:26:22.883Z,15.00
2023-03-22T09:31:27.675Z,15.00
2023-03-22T09:36:34.359Z,15.10
2023-03-22T09:41:41.446Z,15.20
2023-03-22T09:46:48.242Z,15.20
2023-03-22T09:51:54.850Z,15.20
2023-03-22T09:57:03.684Z,15.40
2023-03-22T10:02:32.742Z,15.40
2023-03-22T10:07:48.016Z,15.50
2023-03-22T10:12:59.992Z,15.60
2023-03-22T10:18:07.500Z,15.60
2023-03-22T10:23:17.913Z,15.80
2023-03-22T10:28:24.789Z,15.90
2023-03-22T10:33:36.769Z,16.00
2023-03-22T10:38:47.658Z,16.10
2023-03-22T10:43:54.695Z,16.20
2023-03-22T10:49:00.866Z,16.30
2023-03-22T10:54:06.117Z,16.40
2023-03-22T10:59:12.059Z,16.50
2023-03-22T11:04:17.427Z,16.60
2023-03-22T11:09:24.604Z,16.70
2023-03-22T11:14:31.955Z,16.80
2023-03-22T11:19:37.242Z,16.90
2023-03-22T11:24:42.655Z,17.00
2023-03-22T11:29:48.189Z,17.10
2023-03-22T11:35:01.548Z,17.30
2023-03-22T11:40:10.901Z,17.40
2023-03-22T11:45:17.149Z,17.40
2023-03-22T11:50:29.698Z,17.50
2023-03-22T11:55:36.624Z,17.60
2023-03-22T12:00:40.858Z,17.70
2023-03-22T12:05:47.545Z,17.80
2023-03-22T12:10:58.655Z,17.80
2023-03-22T12:16:06.046Z,17.80
2023-03-22T12:21:11.843Z,17.90
2023-03-22T12:26:21.656Z,17.90
2023-03-22T12:31:28.481Z,18.00
2023-03-22T12:36:39.101Z,18.00
2023-03-22T12:41:49.655Z,18.10
2023-03-22T12:46:57.634Z,18.10
2023-03-22T12:52:13.041Z,18.20
2023-03-22T12:57:18.471Z,18.30
2023-03-22T13:02:30.206Z,18.40
2023-03-22T13:07:52.538Z,18.50
2023-03-22T13:13:15.871Z,18.50
2023-03-22T13:18:33.470Z,18.60
2023-03-22T13:23:53.293Z,18.70
2023-03-22T13:29:01.311Z,18.80
2023-03-22T13:34:05.498Z,18.90
2023-03-22T13:39:12.472Z,19.00
2023-03-22T13:44:29.815Z,19.10
2023-03-22T13:49:50.012Z,19.20
2023-03-22T13:54:57.198Z,19.30
2023-03-22T14:00:14.926Z,19.30
2023-03-22T14:05:22.308Z,19.30
2023-03-22T14:10:28.205Z,19.30
2023-03-22T14:15:38.560Z,19.20
2023-03-22T14:20:42.535Z,19.20
